createdAt,value
2023-04-18T00:00:48.747Z,35.53
2023-04-18T00:03:16.900Z,30.75
2023-04-18T00:05:47.918Z,33.13
2023-04-18T00:08:17.396Z,32.88
2023-04-18T00:10:45.655Z,35.72
2023-04-18T00:13:13.668Z,36.30
2023-04-18T00:15:43.814Z,34.05
2023-04-18T00:18:12.457Z,34.10
2023-04-18T00:20:40.448Z,35.13
2023-04-18T00:23:08.452Z,32.50
2023-04-18T00:25:37.802Z,35.60
2023-04-18T00:28:05.934Z,34.85
2023-04-18T00:30:33.995Z,34.00
2023-04-18T00:33:02.376Z,33.60
2023-04-18T00:35:31.937Z,35.47
2023-04-18T00:38:00.036Z,33.17
2023-04-18T00:40:27.989Z,40.00
2023-04-18T00:42:57.397Z,33.85
2023-04-18T00:45:25.377Z,36.92
2023-04-18T00:47:53.414Z,33.20
2023-04-18T00:50:21.549Z,33.45
2023-04-18T00:52:49.628Z,36.30
2023-04-18T00:55:18.233Z,34.30
2023-04-18T00:57:46.219Z,36.40
2023-04-18T01:00:16.433Z,34.00
2023-04-18T01:02:44.554Z,33.25
2023-04-18T01:05:12.604Z,34.80
2023-04-18T01:07:41.840Z,36.35
2023-04-18T01:10:11.198Z,29.05
2023-04-18T01:12:39.201Z,30.67
2023-04-18T01:15:08.370Z,30.60
2023-04-18T01:17:38.483Z,28.80
2023-04-18T01:20:07.868Z,27.95
2023-04-18T01:22:35.889Z,27.80
2023-04-18T01:25:10.255Z,25.38
2023-04-18T01:27:38.238Z,28.17
2023-04-18T01:30:07.268Z,28.75
2023-04-18T01:32:35.417Z,24.65
2023-04-18T01:35:03.795Z,24.02
2023-04-18T01:37:33.068Z,21.85
2023-04-18T01:40:01.093Z,23.00
2023-04-18T01:42:31.379Z,20.95
2023-04-18T01:44:59.344Z,21.25
2023-04-18T01:47:27.307Z,18.17
2023-04-18T01:49:55.466Z,19.80
2023-04-18T01:52:23.453Z,19.52
2023-04-18T01:54:51.670Z,20.70
2023-04-18T01:57:19.626Z,16.65
2023-04-18T01:59:48.921Z,17.45
2023-04-18T02:02:16.946Z,19.88
2023-04-18T02:04:46.375Z,16.95
2023-04-18T02:07:14.347Z,18.33
2023-04-18T02:09:42.304Z,16.50
2023-04-18T02:12:10.552Z,13.48
2023-04-18T02:14:38.535Z,17.77
2023-04-18T02:17:08.014Z,17.33
2023-04-18T02:19:36.010Z,17.10
2023-04-18T02:22:04.200Z,14.18
2023-04-18T02:24:32.135Z,14.88
2023-04-18T02:27:00.172Z,14.30
2023-04-18T02:29:28.190Z,14.45
2023-04-18T02:31:56.355Z,19.23
2023-04-18T02:34:25.826Z,14.00
2023-04-18T02:36:53.839Z,14.68
2023-04-18T02:39:22.297Z,11.52
2023-04-18T02:41:50.318Z,14.48
2023-04-18T02:44:18.320Z,13.43
2023-04-18T02:46:46.305Z,13.55
2023-04-18T02:49:14.302Z,12.63
2023-04-18T02:51:43.596Z,12.50
2023-04-18T02:54:11.719Z,13.38
2023-04-18T02:56:40.211Z,12.52
2023-04-18T02:59:08.534Z,15.88
2023-04-18T03:01:36.596Z,14.68
2023-04-18T03:04:04.609Z,12.15
2023-04-18T03:06:32.770Z,12.52
2023-04-18T03:09:02.080Z,12.73
2023-04-18T03:11:30.049Z,14.23
2023-04-18T03:13:58.054Z,13.48
2023-04-18T03:16:26.045Z,13.45
2023-04-18T03:18:54.086Z,13.32
2023-04-18T03:21:22.026Z,14.70
2023-04-18T03:23:50.121Z,12.52
2023-04-18T03:26:19.605Z,13.18
2023-04-18T03:28:47.607Z,15.15
2023-04-18T03:31:15.656Z,13.75
2023-04-18T03:33:45.589Z,12.40
2023-04-18T03:36:15.133Z,13.93
2023-04-18T03:38:43.088Z,12.65
2023-04-18T03:41:11.023Z,14.55
2023-04-18T03:43:40.400Z,14.55
2023-04-18T03:46:08.435Z,15.95
2023-04-18T03:48:37.463Z,14.23
2023-04-18T03:51:07.404Z,12.95
2023-04-18T03:53:35.703Z,14.52
2023-04-18T03:56:03.754Z,13.30
2023-04-18T03:58:31.667Z,14.95
2023-04-18T04:01:01.585Z,15.35
2023-04-18T04:03:30.036Z,16.48
2023-04-18T04:05:58.289Z,17.88
2023-04-18T04:08:28.102Z,16.48
2023-04-18T04:10:56.251Z,15.93
2023-04-18T04:13:24.224Z,13.20
2023-04-18T04:15:52.814Z,14.57
2023-04-18T04:18:25.384Z,15.00
2023-04-18T04:20:53.377Z,16.52
2023-04-18T04:23:22.716Z,16.23
2023-04-18T04:25:50.741Z,16.70
2023-04-18T04:28:18.744Z,14.82
2023-04-18T04:30:46.709Z,16.42
2023-04-18T04:33:14.648Z,19.27
2023-04-18T04:35:44.738Z,17.60
2023-04-18T04:38:13.047Z,14.23
2023-04-18T04:40:40.986Z,18.15
2023-04-18T04:43:12.816Z,16.02
2023-04-18T04:45:41.462Z,16.38
2023-04-18T04:48:09.658Z,16.25
2023-04-18T04:50:39.093Z,18.77
2023-04-18T04:53:08.814Z,16.50
2023-04-18T04:55:38.555Z,16.95
2023-04-18T04:58:06.499Z,15.18
2023-04-18T05:00:34.416Z,16.35
2023-04-18T05:03:02.646Z,15.68
2023-04-18T05:05:31.516Z,13.23
2023-04-18T05:07:59.505Z,17.42
2023-04-18T05:10:28.905Z,15.00
2023-04-18T05:12:56.960Z,17.65
2023-04-18T05:15:25.301Z,15.18
2023-04-18T05:17:53.290Z,17.25
2023-04-18T05:20:21.298Z,16.58
2023-04-18T05:22:49.184Z,16.92
2023-04-18T05:25:17.235Z,15.77
2023-04-18T05:27:47.170Z,17.80
2023-04-18T05:30:15.532Z,16.38
2023-04-18T05:32:43.795Z,15.77
2023-04-18T05:35:11.874Z,15.82
2023-04-18T05:37:39.868Z,13.95
2023-04-18T05:40:09.502Z,14.45
2023-04-18T05:42:37.521Z,14.80
2023-04-18T05:45:07.934Z,16.40
2023-04-18T05:47:36.046Z,18.27
2023-04-18T05:50:04.314Z,19.52
2023-04-18T05:52:32.908Z,16.02
2023-04-18T05:55:00.894Z,18.35
2023-04-18T05:57:28.899Z,18.40
2023-04-18T05:59:56.846Z,18.77
2023-04-18T06:02:26.533Z,18.85
2023-04-18T06:04:54.811Z,17.50
2023-04-18T06:07:25.085Z,18.45
2023-04-18T06:09:53.969Z,17.70
2023-04-18T06:12:22.008Z,18.77
2023-04-18T06:14:51.261Z,17.80
2023-04-18T06:17:19.280Z,15.10
2023-04-18T06:19:48.533Z,19.58
2023-04-18T06:22:16.487Z,16.58
2023-04-18T06:24:44.855Z,16.17
2023-04-18T06:27:27.909Z,18.10
2023-04-18T06:29:58.370Z,17.15
2023-04-18T06:32:26.518Z,16.40
2023-04-18T06:34:56.028Z,16.17
2023-04-18T06:37:24.445Z,18.83
2023-04-18T06:39:52.401Z,17.70
2023-04-18T06:42:22.206Z,19.55
2023-04-18T06:44:50.607Z,16.67
2023-04-18T06:47:18.760Z,17.15
2023-04-18T06:49:46.859Z,17.85
2023-04-18T06:52:16.212Z,18.83
2023-04-18T06:54:44.225Z,17.40
2023-04-18T06:57:12.335Z,17.13
2023-04-18T06:59:41.364Z,21.17
2023-04-18T07:02:09.572Z,16.05
2023-04-18T07:04:37.629Z,15.90
2023-04-18T07:07:05.755Z,15.55
2023-04-18T07:09:35.074Z,18.33
2023-04-18T07:12:03.068Z,18.90
2023-04-18T07:14:32.865Z,16.63
2023-04-18T07:17:02.335Z,19.30
2023-04-18T07:19:30.351Z,17.73
2023-04-18T07:21:58.344Z,16.85
2023-04-18T07:24:26.322Z,17.80
2023-04-18T07:26:55.813Z,20.13
2023-04-18T07:29:23.847Z,20.58
2023-04-18T07:31:52.042Z,17.98
2023-04-18T07:34:20.012Z,15.00
2023-04-18T07:36:47.989Z,16.17
2023-04-18T07:39:16.141Z,16.42
2023-04-18T07:41:44.114Z,14.80
2023-04-18T07:44:13.691Z,17.20
2023-04-18T07:46:42.153Z,18.08
2023-04-18T07:49:10.219Z,15.43
2023-04-18T07:51:38.206Z,17.58
2023-04-18T07:54:06.290Z,16.20
2023-04-18T07:56:34.666Z,16.15
2023-04-18T07:59:02.723Z,15.68
2023-04-18T08:01:32.137Z,14.90
2023-04-18T08:04:02.227Z,16.50
2023-04-18T08:06:30.629Z,15.32
2023-04-18T08:09:03.102Z,13.82
2023-04-18T08:11:31.143Z,16.73
2023-04-18T08:13:59.107Z,16.27
2023-04-18T08:16:27.396Z,16.67
2023-04-18T08:18:56.820Z,16.42
2023-04-18T08:21:24.832Z,12.52
2023-04-18T08:23:52.782Z,14.95
2023-04-18T08:26:21.841Z,13.88
2023-04-18T08:28:49.810Z,11.95
2023-04-18T08:31:17.863Z,15.57
2023-04-18T08:33:45.909Z,12.95
2023-04-18T08:36:15.210Z,14.43
2023-04-18T08:38:43.166Z,12.80
2023-04-18T08:41:11.114Z,12.95
2023-04-18T08:43:39.354Z,13.00
2023-04-18T08:46:07.995Z,14.35
2023-04-18T08:48:36.701Z,13.98
2023-04-18T08:51:05.395Z,13.25
2023-04-18T08:53:35.208Z,12.55
2023-04-18T08:56:05.394Z,11.18
2023-04-18T08:58:34.849Z,12.57
2023-04-18T09:01:03.048Z,11.98
2023-04-18T09:03:39.868Z,12.20
2023-04-18T09:06:09.454Z,14.05
2023-04-18T09:08:39.083Z,12.10
2023-04-18T09:11:24.269Z,10.13
2023-04-18T09:13:52.249Z,14.05
2023-04-18T09:16:22.986Z,15.77
2023-04-18T09:19:10.363Z,10.05
2023-04-18T09:21:40.903Z,10.82
2023-04-18T09:24:21.168Z,17.40
2023-04-18T09:26:50.759Z,11.75
2023-04-18T09:29:22.497Z,11.68
2023-04-18T09:31:59.770Z,11.00
2023-04-18T09:34:28.649Z,11.70
2023-04-18T09:37:10.554Z,11.77
2023-04-18T09:39:41.096Z,11.40
2023-04-18T09:42:10.501Z,11.88
2023-04-18T09:44:38.864Z,11.07
2023-04-18T09:47:07.776Z,11.70
2023-04-18T09:49:35.790Z,12.10
2023-04-18T09:52:07.431Z,10.88
2023-04-18T09:54:38.895Z,11.32
2023-04-18T09:57:11.948Z,10.57
2023-04-18T09:59:47.631Z,12.70
2023-04-18T10:02:21.242Z,11.38
2023-04-18T10:04:51.737Z,15.77
2023-04-18T10:07:20.085Z,11.50
2023-04-18T10:09:48.728Z,10.15
2023-04-18T10:12:18.952Z,12.20
2023-04-18T10:14:47.314Z,9.63
2023-04-18T10:17:16.062Z,11.65
2023-04-18T10:19:46.208Z,9.75
2023-04-18T10:22:14.272Z,10.52
2023-04-18T10:24:49.724Z,9.85
2023-04-18T10:27:19.937Z,10.45
2023-04-18T10:29:49.374Z,10.23
2023-04-18T10:32:17.964Z,9.60
2023-04-18T10:34:47.620Z,11.05
2023-04-18T10:37:18.823Z,11.93
2023-04-18T10:39:56.867Z,11.07
2023-04-18T10:42:58.289Z,12.05
2023-04-18T10:45:31.014Z,10.50
2023-04-18T10:48:32.800Z,11.43
2023-04-18T10:51:17.133Z,11.30
2023-04-18T10:53:51.250Z,10.70
2023-04-18T10:56:19.314Z,10.55
2023-04-18T10:58:51.586Z,9.45
2023-04-18T11:03:54.380Z,10.05
2023-04-18T11:06:22.690Z,9.45
2023-04-18T11:08:51.201Z,8.48
2023-04-18T11:11:19.185Z,9.77
2023-04-18T11:13:57.888Z,10.02
2023-04-18T11:16:31.798Z,8.32
2023-04-18T11:19:00.142Z,9.07
2023-04-18T11:21:30.415Z,10.82
2023-04-18T11:23:59.279Z,8.20
2023-04-18T11:26:28.965Z,8.88
2023-04-18T11:28:58.680Z,10.32
2023-04-18T11:31:26.685Z,11.15
2023-04-18T11:33:57.780Z,10.98
2023-04-18T11:36:26.270Z,10.48
2023-04-18T11:38:54.238Z,9.50
2023-04-18T11:41:23.033Z,10.00
2023-04-18T11:43:51.044Z,10.32
2023-04-18T11:46:19.041Z,12.70
2023-04-18T11:48:47.752Z,10.05
2023-04-18T11:51:35.614Z,11.10
2023-04-18T11:54:03.898Z,11.80
2023-04-18T11:56:34.622Z,9.85
2023-04-18T12:01:37.108Z,8.60
2023-04-18T12:04:06.738Z,8.18
2023-04-18T12:06:48.190Z,8.60
2023-04-18T12:09:16.640Z,6.40
2023-04-18T12:11:45.426Z,7.80
2023-04-18T12:14:23.013Z,8.07
2023-04-18T12:16:51.049Z,10.02
2023-04-18T12:19:20.452Z,10.93
2023-04-18T12:22:01.642Z,7.03
2023-04-18T12:24:30.009Z,7.60
2023-04-18T12:26:58.497Z,11.50
2023-04-18T12:29:29.155Z,12.73
2023-04-18T12:31:57.266Z,8.55
2023-04-18T12:34:25.393Z,8.32
2023-04-18T12:36:53.775Z,7.55
2023-04-18T12:39:23.080Z,8.27
2023-04-18T12:41:51.125Z,7.93
2023-04-18T12:44:19.151Z,6.72
2023-04-18T12:46:47.164Z,6.38
2023-04-18T12:49:15.169Z,6.80
2023-04-18T12:51:43.572Z,8.02
2023-04-18T12:54:11.754Z,7.40
2023-04-18T12:56:41.206Z,6.80
2023-04-18T12:59:09.148Z,6.80
2023-04-18T13:01:37.201Z,7.55
2023-04-18T13:04:12.558Z,7.88
2023-04-18T13:06:41.580Z,10.60
2023-04-18T13:09:10.428Z,8.05
2023-04-18T13:11:38.450Z,8.13
2023-04-18T13:14:08.031Z,6.40
2023-04-18T13:16:36.155Z,9.27
2023-04-18T13:19:04.177Z,7.55
2023-04-18T13:21:32.190Z,8.77
2023-04-18T13:24:00.935Z,9.07
2023-04-18T13:26:29.010Z,10.45
2023-04-18T13:28:57.004Z,9.65
2023-04-18T13:31:26.809Z,9.20
2023-04-18T13:33:54.856Z,9.13
2023-04-18T13:36:24.004Z,9.63
2023-04-18T13:38:52.643Z,10.02
2023-04-18T13:41:20.588Z,9.68
2023-04-18T13:43:48.533Z,10.57
2023-04-18T13:46:16.521Z,10.60
2023-04-18T13:48:46.114Z,12.48
2023-04-18T13:51:14.083Z,12.18
2023-04-18T13:53:42.086Z,10.48
2023-04-18T13:56:10.452Z,11.85
2023-04-18T13:58:38.437Z,10.13
2023-04-18T14:01:06.859Z,10.30
2023-04-18T14:03:36.890Z,13.57
2023-04-18T14:06:08.000Z,10.70
2023-04-18T14:08:36.014Z,10.40
2023-04-18T14:11:04.126Z,12.07
2023-04-18T14:13:32.352Z,11.50
2023-04-18T14:16:00.909Z,10.27
2023-04-18T14:18:28.973Z,11.73
2023-04-18T14:20:56.892Z,11.65
2023-04-18T14:23:26.272Z,11.45
2023-04-18T14:25:54.231Z,11.52
2023-04-18T14:28:24.844Z,10.45
2023-04-18T14:30:55.237Z,12.75
2023-04-18T14:33:23.218Z,12.90
2023-04-18T14:35:51.494Z,11.43
2023-04-18T14:38:20.030Z,12.63
2023-04-18T14:40:49.601Z,11.57
2023-04-18T14:43:17.617Z,14.25
2023-04-18T14:45:45.593Z,11.82
2023-04-18T14:48:13.632Z,11.52
2023-04-18T14:50:41.647Z,11.02
2023-04-18T14:53:09.612Z,12.18
2023-04-18T14:55:37.580Z,11.32
2023-04-18T14:58:06.924Z,12.20
2023-04-18T15:00:35.055Z,13.75
2023-04-18T15:03:03.672Z,11.70
2023-04-18T15:05:31.765Z,11.35
2023-04-18T15:07:59.724Z,13.80
2023-04-18T15:10:27.688Z,13.77
2023-04-18T15:12:55.706Z,12.40
2023-04-18T15:15:25.202Z,13.50
2023-04-18T15:17:53.264Z,12.82
2023-04-18T15:20:23.275Z,13.52
2023-04-18T15:22:52.055Z,13.75
2023-04-18T15:25:20.224Z,14.73
2023-04-18T15:27:48.230Z,14.48
2023-04-18T15:30:16.324Z,13.05
2023-04-18T15:32:45.722Z,14.20
2023-04-18T15:35:14.048Z,14.40
2023-04-18T15:37:42.062Z,14.35
2023-04-18T15:40:16.029Z,13.68
2023-04-18T15:42:44.435Z,14.13
2023-04-18T15:45:13.255Z,12.93
2023-04-18T15:47:41.823Z,12.98
2023-04-18T15:50:11.689Z,13.82
2023-04-18T15:52:41.395Z,13.52
2023-04-18T15:55:12.318Z,13.65
2023-04-18T15:57:40.708Z,12.55
2023-04-18T16:00:15.639Z,13.43
2023-04-18T16:02:44.601Z,15.68
2023-04-18T16:05:15.464Z,13.18
2023-04-18T16:07:44.023Z,13.93
2023-04-18T16:10:12.877Z,13.40
2023-04-18T16:12:41.182Z,13.07
2023-04-18T16:15:12.333Z,12.50
2023-04-18T16:17:40.321Z,12.67
2023-04-18T16:20:09.473Z,12.15
2023-04-18T16:22:39.024Z,11.88
2023-04-18T16:25:08.112Z,12.15
2023-04-18T16:27:36.113Z,12.65
2023-04-18T16:30:04.389Z,11.70
2023-04-18T16:32:32.366Z,13.38
2023-04-18T16:35:00.416Z,12.93
2023-04-18T16:37:28.534Z,12.48
2023-04-18T16:39:57.815Z,11.57
2023-04-18T16:42:25.905Z,12.57
2023-04-18T16:44:53.897Z,14.63
2023-04-18T16:47:21.941Z,12.43
2023-04-18T16:49:51.304Z,12.80
2023-04-18T16:52:19.268Z,12.45
2023-04-18T16:54:48.547Z,13.65
2023-04-18T16:57:19.029Z,15.30
2023-04-18T16:59:47.317Z,12.48
2023-04-18T17:02:15.357Z,15.13
2023-04-18T17:04:43.517Z,13.20
2023-04-18T17:07:11.490Z,12.82
2023-04-18T17:09:39.409Z,14.23
2023-04-18T17:12:07.639Z,14.18
2023-04-18T17:14:37.168Z,14.93
2023-04-18T17:17:05.436Z,13.82
2023-04-18T17:19:33.364Z,13.07
2023-04-18T17:22:01.926Z,13.18
2023-04-18T17:24:29.960Z,13.52
2023-04-18T17:26:58.210Z,14.05
2023-04-18T17:29:26.658Z,12.07
2023-04-18T17:31:56.333Z,14.80
2023-04-18T17:34:24.326Z,12.43
2023-04-18T17:36:52.351Z,13.43
2023-04-18T17:39:20.346Z,13.98
2023-04-18T17:41:48.318Z,13.18
2023-04-18T17:44:16.319Z,13.23
2023-04-18T17:46:44.282Z,15.45
2023-04-18T17:49:13.793Z,16.40
2023-04-18T17:51:41.874Z,15.75
2023-04-18T17:55:31.110Z,13.05
2023-04-18T17:57:59.049Z,15.50
2023-04-18T18:00:27.081Z,12.38
2023-04-18T18:02:55.280Z,13.98
2023-04-18T18:05:23.563Z,13.38
2023-04-18T18:07:53.158Z,14.20
2023-04-18T18:10:23.276Z,12.07
2023-04-18T18:12:53.034Z,16.00
2023-04-18T18:15:21.335Z,13.32
2023-04-18T18:17:50.419Z,14.98
2023-04-18T18:20:19.069Z,13.15
2023-04-18T18:22:47.327Z,16.33
2023-04-18T18:25:15.397Z,14.02
2023-04-18T18:27:43.463Z,14.70
2023-04-18T18:30:13.092Z,12.98
2023-04-18T18:32:41.074Z,15.60
2023-04-18T18:35:09.946Z,16.60
2023-04-18T18:37:37.907Z,15.15
2023-04-18T18:40:07.335Z,14.07
2023-04-18T18:42:35.371Z,14.38
2023-04-18T18:45:04.056Z,16.33
2023-04-18T18:47:34.294Z,15.55
2023-04-18T18:50:02.508Z,15.15
2023-04-18T18:52:31.020Z,15.48
2023-04-18T18:55:01.033Z,13.95
2023-04-18T18:57:29.153Z,16.30
2023-04-18T18:59:57.096Z,13.75
2023-04-18T19:02:25.399Z,14.02
2023-04-18T19:04:55.087Z,14.40
2023-04-18T19:07:23.029Z,19.55
2023-04-18T19:09:50.990Z,14.57
2023-04-18T19:12:18.972Z,15.43
2023-04-18T19:14:46.969Z,14.27
2023-04-18T19:17:17.608Z,15.68
2023-04-18T19:19:45.606Z,16.30
2023-04-18T19:22:14.962Z,16.13
2023-04-18T19:24:42.982Z,16.83
2023-04-18T19:27:10.962Z,14.68
2023-04-18T19:29:38.959Z,15.10
2023-04-18T19:32:07.409Z,18.52
2023-04-18T19:34:35.455Z,16.95
2023-04-18T19:37:03.747Z,18.58
2023-04-18T19:39:33.135Z,18.10
2023-04-18T19:42:01.907Z,18.08
2023-04-18T19:44:31.156Z,17.23
2023-04-18T19:46:59.190Z,16.13
2023-04-18T19:49:27.256Z,17.15
2023-04-18T19:51:55.246Z,19.58
2023-04-18T19:54:23.289Z,20.45
2023-04-18T19:56:52.775Z,16.13
2023-04-18T19:59:20.785Z,18.52
2023-04-18T20:01:48.790Z,16.23
2023-04-18T20:04:17.188Z,17.88
2023-04-18T20:06:45.328Z,18.73
2023-04-18T20:09:16.856Z,16.77
2023-04-18T20:11:46.506Z,17.48
2023-04-18T20:14:15.878Z,16.15
2023-04-18T20:16:45.711Z,17.25
2023-04-18T20:19:16.134Z,18.60
2023-04-18T20:21:44.218Z,16.42
2023-04-18T20:24:12.181Z,18.80
2023-04-18T20:26:40.176Z,18.05
2023-04-18T20:29:08.418Z,17.33
2023-04-18T20:31:42.072Z,17.08
2023-04-18T20:34:10.998Z,16.13
2023-04-18T20:36:41.441Z,17.20
2023-04-18T20:39:09.888Z,16.30
2023-04-18T20:41:37.983Z,15.13
2023-04-18T20:44:06.764Z,15.80
2023-04-18T20:46:34.901Z,15.65
2023-04-18T20:49:04.325Z,14.43
2023-04-18T20:51:32.521Z,16.50
2023-04-18T20:54:00.489Z,14.32
2023-04-18T20:56:28.484Z,14.52
2023-04-18T20:58:56.518Z,15.05
2023-04-18T21:01:24.885Z,15.77
2023-04-18T21:03:53.092Z,15.63
2023-04-18T21:06:22.955Z,13.73
2023-04-18T21:08:50.908Z,13.65
2023-04-18T21:11:18.887Z,14.88
2023-04-18T21:13:46.903Z,16.88
2023-04-18T21:16:14.992Z,16.60
2023-04-18T21:18:43.047Z,13.68
2023-04-18T21:21:11.748Z,14.15
2023-04-18T21:23:44.858Z,16.08
2023-04-18T21:26:13.414Z,15.18
2023-04-18T21:28:58.364Z,14.05
2023-04-18T21:31:27.075Z,14.25
2023-04-18T21:33:55.671Z,13.23
2023-04-18T21:36:26.392Z,15.07
2023-04-18T21:38:56.756Z,13.45
2023-04-18T21:41:25.410Z,12.65
2023-04-18T21:43:54.471Z,15.23
2023-04-18T21:46:22.561Z,14.57
2023-04-18T21:48:50.556Z,13.52
2023-04-18T21:51:18.750Z,11.93
2023-04-18T21:53:46.873Z,15.25
2023-04-18T21:56:16.697Z,12.57
2023-04-18T21:58:44.655Z,14.35
2023-04-18T22:01:12.649Z,13.30
2023-04-18T22:03:40.906Z,11.75
2023-04-18T22:06:09.014Z,13.70
2023-04-18T22:08:38.020Z,13.82
2023-04-18T22:11:06.352Z,11.88
2023-04-18T22:13:35.672Z,14.40
2023-04-18T22:16:04.320Z,13.77
2023-04-18T22:18:34.307Z,15.02
2023-04-18T22:21:03.422Z,13.27
2023-04-18T22:23:31.946Z,13.77
2023-04-18T22:26:00.204Z,13.77
2023-04-18T22:28:28.866Z,14.07
2023-04-18T22:30:58.253Z,11.98
2023-04-18T22:33:26.589Z,13.27
2023-04-18T22:35:55.553Z,13.10
2023-04-18T22:38:23.583Z,14.80
2023-04-18T22:40:51.531Z,13.93
2023-04-18T22:43:22.849Z,12.00
2023-04-18T22:45:51.585Z,12.40
2023-04-18T22:48:21.053Z,12.80
2023-04-18T22:50:49.741Z,13.52
2023-04-18T22:53:18.305Z,12.40
2023-04-18T22:55:46.851Z,12.07
2023-04-18T22:58:14.910Z,11.38
2023-04-18T23:00:43.133Z,11.38
2023-04-18T23:03:11.274Z,14.55
2023-04-18T23:05:41.726Z,11.80
2023-04-18T23:08:11.813Z,12.63
2023-04-18T23:10:39.996Z,11.93
2023-04-18T23:13:07.999Z,12.43
2023-04-18T23:15:36.038Z,12.43
2023-04-18T23:18:04.157Z,13.38
2023-04-18T23:20:32.309Z,14.32
2023-04-18T23:23:01.969Z,12.13
2023-04-18T23:25:29.969Z,10.90
2023-04-18T23:27:57.927Z,10.82
2023-04-18T23:30:26.755Z,11.65
2023-04-18T23:32:55.024Z,11.40
2023-04-18T23:35:23.157Z,13.50
2023-04-18T23:37:51.203Z,12.13
2023-04-18T23:40:20.960Z,12.80
2023-04-18T23:42:48.924Z,11.57
2023-04-18T23:45:17.111Z,14.32
2023-04-18T23:47:45.168Z,14.20
2023-04-18T23:50:13.683Z,11.13
2023-04-18T23:52:41.708Z,12.50
2023-04-18T23:55:10.446Z,11.30
2023-04-18T23:57:39.821Z,12.13
